< < Back
Terminal Aerodrome Forecast


Current Version              Previous Versions:   1  2  3  4  5  6  7  8  9  

Terminal Aerodrome Forecast

856
FTUS42 KFFC 160400 AAC
TAFATL
TAF AMD
KATL 160452Z 1605/1706 15004KT P6SM VCSH SCT015 BKN050
     FM160600 16004KT 6SM BR BKN012
     FM160900 21003KT 4SM BR BKN006
     FM161300 32007KT 6SM BR BKN012
     FM161600 33008KT P6SM SCT025 BKN040
     FM161800 33012KT P6SM SCT050 BKN100=

Latest METAR

573
SAUS70 KWBC 160700
MTRATL
METAR KATL 160652Z 00000KT 6SM BR FEW005 SCT150 BKN200 OVC250 22/21
A3010 RMK AO2 RAE0554 SLP185 P0000 T02220211


USA.gov is the U.S. government's official web portal to all federal, state and local government web resources and services.